Time;durP1;ratioP1;P1;durP2;ratioP2;P2;SDS_P1;SDS_P2;PMS_P1;PMS_P2;Temp;Humidity;BMP_temperature;BMP_pressure;BME280_temperature;BME280_humidity;BME280_pressure;Samples;Min_cycle;Max_cycle;Signal;HPM_P1;HPM_P2
2022/01/14 00:01:46;;;;;;;36.43;23.47;;;7.30;99.90;;;;;;5054032;28;20432;-47
2022/01/14 00:04:13;;;;;;;36.30;25.33;;;7.30;99.90;;;;;;5057397;28;20883;-47
2022/01/14 00:06:41;;;;;;;49.27;25.40;;;7.30;99.90;;;;;;5058602;28;20440;-47
2022/01/14 00:09:10;;;;;;;43.00;25.50;;;7.30;99.90;;;;;;5058286;28;20432;-48
2022/01/14 00:11:39;;;;;;;42.40;29.20;;;7.30;99.90;;;;;;5057984;28;20449;-47
2022/01/14 00:14:21;;;;;;;38.47;26.10;;;7.30;99.90;;;;;;5058608;28;20813;-48
2022/01/14 00:16:48;;;;;;;43.57;25.73;;;7.30;99.90;;;;;;5058422;28;20434;-48
2022/01/14 00:19:14;;;;;;;38.47;25.47;;;7.30;99.90;;;;;;5057430;28;20413;-48
2022/01/14 00:21:44;;;;;;;43.27;26.00;;;7.40;99.90;;;;;;5058075;28;20430;-48
2022/01/14 00:24:22;;;;;;;42.83;25.27;;;7.30;99.90;;;;;;5057842;28;20503;-47
2022/01/14 00:32:22;;;;;;;36.10;23.60;;;7.40;99.90;;;;;;5057776;28;20819;-47
2022/01/14 00:34:49;;;;;;;37.53;23.03;;;7.40;99.90;;;;;;5058190;28;20404;-47
2022/01/14 00:37:18;;;;;;;38.20;24.60;;;7.40;99.90;;;;;;5057511;28;20413;-47
2022/01/14 00:39:46;;;;;;;37.07;23.90;;;7.40;99.90;;;;;;5057289;28;20427;-47
2022/01/14 00:42:14;;;;;;;38.90;24.93;;;7.40;99.90;;;;;;5057585;28;20983;-48
2022/01/14 00:44:40;;;;;;;38.60;23.90;;;7.30;99.90;;;;;;5057646;28;20873;-48
2022/01/14 00:47:07;;;;;;;39.17;26.23;;;7.40;99.90;;;;;;5057826;28;20902;-48
2022/01/14 00:49:34;;;;;;;36.10;22.90;;;7.40;99.90;;;;;;5057612;28;20809;-47
2022/01/14 00:52:00;;;;;;;36.53;22.23;;;7.30;99.90;;;;;;5057549;28;20444;-47
2022/01/14 00:54:28;;;;;;;37.50;24.17;;;7.30;99.90;;;;;;5057926;28;20445;-48
2022/01/14 00:57:14;;;;;;;33.97;22.63;;;7.30;99.90;;;;;;5057121;28;20503;-48
2022/01/14 00:59:39;;;;;;;39.60;23.50;;;7.30;99.90;;;;;;5057182;28;20503;-47
2022/01/14 01:02:06;;;;;;;32.13;22.70;;;7.30;99.90;;;;;;5057130;28;20544;-49
2022/01/14 01:04:36;;;;;;;40.50;24.67;;;7.40;99.90;;;;;;5057253;28;20235;-48
2022/01/14 01:07:06;;;;;;;41.87;23.30;;;7.30;99.90;;;;;;5057979;28;20415;-48
2022/01/14 01:09:35;;;;;;;35.10;22.40;;;7.30;99.90;;;;;;5057690;28;20488;-48
2022/01/14 01:12:13;;;;;;;44.00;22.70;;;7.40;99.90;;;;;;5057374;28;20461;-48
2022/01/14 01:14:45;;;;;;;32.83;23.13;;;7.40;99.90;;;;;;5056666;28;20469;-48
2022/01/14 01:17:12;;;;;;;34.50;23.27;;;7.40;99.90;;;;;;5057183;28;20429;-48
2022/01/14 01:19:39;;;;;;;37.00;23.27;;;7.40;99.90;;;;;;5056434;28;20800;-48
2022/01/14 01:22:06;;;;;;;32.87;21.70;;;7.40;99.90;;;;;;5056495;28;20939;-48
2022/01/14 01:24:46;;;;;;;34.80;22.57;;;7.40;99.90;;;;;;5038658;28;20504;-48
2022/01/14 01:27:14;;;;;;;35.50;23.20;;;7.40;99.90;;;;;;5056866;28;20428;-48
2022/01/14 01:29:50;;;;;;;34.90;22.67;;;7.40;99.90;;;;;;5056227;28;20937;-48
2022/01/14 01:32:17;;;;;;;46.40;25.87;;;7.40;99.90;;;;;;5038384;28;20913;-48
2022/01/14 01:34:44;;;;;;;37.67;23.50;;;7.40;99.90;;;;;;5056674;28;20434;-47
2022/01/14 01:37:10;;;;;;;37.40;23.57;;;7.40;99.90;;;;;;5056854;28;20434;-48
2022/01/14 01:39:37;;;;;;;31.97;22.13;;;7.40;99.90;;;;;;5056522;28;20487;-48
2022/01/14 01:42:08;;;;;;;40.80;24.60;;;7.40;99.90;;;;;;5056697;28;20451;-48
2022/01/14 01:44:37;;;;;;;41.77;22.77;;;7.50;99.90;;;;;;5056285;28;20456;-47
2022/01/14 01:47:05;;;;;;;34.87;22.60;;;7.50;99.90;;;;;;5056182;28;20477;-47
2022/01/14 01:49:34;;;;;;;40.87;24.60;;;7.50;99.90;;;;;;5056045;28;20427;-48
2022/01/14 01:52:01;;;;;;;37.47;25.23;;;7.50;99.90;;;;;;5056048;28;20451;-47
2022/01/14 01:54:29;;;;;;;41.13;25.17;;;7.50;99.90;;;;;;5056237;28;20436;-48
2022/01/14 01:56:56;;;;;;;38.10;25.50;;;7.50;99.90;;;;;;5056871;28;20438;-48
2022/01/14 01:59:26;;;;;;;37.40;24.73;;;7.60;99.90;;;;;;5055974;28;20422;-48
2022/01/14 02:01:55;;;;;;;37.67;24.30;;;7.50;99.90;;;;;;5056384;28;20483;-47
2022/01/14 02:04:22;;;;;;;41.83;25.57;;;7.50;99.90;;;;;;5056788;28;20565;-47
2022/01/14 02:06:51;;;;;;;41.43;26.03;;;7.50;99.90;;;;;;5056109;28;20423;-49
2022/01/14 02:09:17;;;;;;;40.53;24.37;;;7.50;99.90;;;;;;5055743;28;20441;-49
2022/01/14 02:11:44;;;;;;;36.13;22.70;;;7.50;99.90;;;;;;5054990;28;20458;-46
2022/01/14 02:14:26;;;;;;;39.20;25.17;;;7.50;99.90;;;;;;5055500;28;20746;-47
2022/01/14 02:17:29;;;;;;;41.33;24.80;;;7.50;99.90;;;;;;5057051;28;20409;-47
2022/01/14 02:22:45;;;;;;;43.60;24.60;;;7.50;99.90;;;;;;5058939;28;20440;-47
2022/01/14 02:25:14;;;;;;;37.90;25.00;;;7.50;99.90;;;;;;5056995;28;20855;-48
2022/01/14 02:27:41;;;;;;;38.47;23.93;;;7.30;99.90;;;;;;5054911;28;20449;-48
2022/01/14 02:30:09;;;;;;;43.17;24.47;;;7.50;99.90;;;;;;5056113;28;20413;-48
2022/01/14 02:32:36;;;;;;;46.97;25.80;;;7.60;99.90;;;;;;5055896;28;20505;-48
2022/01/14 02:35:05;;;;;;;48.87;25.73;;;7.60;99.90;;;;;;5055863;28;20418;-48
2022/01/14 02:37:31;;;;;;;48.87;25.83;;;7.50;99.90;;;;;;5055601;28;20412;-48
2022/01/14 02:39:58;;;;;;;42.83;25.70;;;7.50;99.90;;;;;;5055725;28;20461;-48
2022/01/14 02:42:25;;;;;;;45.60;24.63;;;7.50;99.90;;;;;;5055429;28;20505;-47
2022/01/14 02:44:56;;;;;;;41.43;25.83;;;7.50;99.90;;;;;;5055786;28;20445;-48
2022/01/14 02:47:23;;;;;;;49.83;28.90;;;7.50;99.90;;;;;;5055515;28;20938;-48
2022/01/14 02:49:50;;;;;;;53.47;29.23;;;7.50;99.90;;;;;;5055684;28;20428;-48
2022/01/14 02:52:27;;;;;;;49.60;30.17;;;7.50;99.90;;;;;;5055275;28;20473;-48
2022/01/14 02:55:03;;;;;;;58.43;31.70;;;7.50;99.90;;;;;;5055680;28;20401;-48
2022/01/14 02:57:31;;;;;;;44.53;29.70;;;7.50;99.90;;;;;;5055359;28;20477;-48
2022/01/14 02:59:59;;;;;;;51.17;30.80;;;7.50;99.90;;;;;;5055130;28;20427;-48
2022/01/14 03:02:28;;;;;;;49.13;29.70;;;7.50;99.90;;;;;;5055343;28;20798;-48
2022/01/14 03:04:56;;;;;;;53.67;31.03;;;7.50;99.90;;;;;;5055435;28;20974;-48
2022/01/14 03:07:24;;;;;;;55.03;31.57;;;7.50;99.90;;;;;;5055455;28;20444;-48
2022/01/14 03:09:50;;;;;;;52.83;29.70;;;7.50;99.90;;;;;;5054931;28;20441;-48
2022/01/14 03:12:17;;;;;;;51.07;29.97;;;7.50;99.90;;;;;;5055740;28;20452;-48
2022/01/14 03:14:45;;;;;;;59.87;31.43;;;7.50;99.90;;;;;;5055893;28;20442;-48
2022/01/14 03:17:12;;;;;;;51.77;28.27;;;7.50;99.90;;;;;;5055352;28;20415;-48
2022/01/14 03:19:38;;;;;;;49.80;31.03;;;7.40;99.90;;;;;;5055083;28;20511;-48
2022/01/14 03:22:08;;;;;;;47.30;29.33;;;7.60;99.90;;;;;;5055673;28;20436;-48
2022/01/14 03:27:20;;;;;;;48.10;27.83;;;7.60;99.90;;;;;;5037257;28;20448;-48
2022/01/14 03:29:47;;;;;;;42.80;27.80;;;7.60;99.90;;;;;;5055016;28;20794;-48
2022/01/14 03:32:14;;;;;;;52.90;27.93;;;7.50;99.90;;;;;;5055543;28;20464;-48
2022/01/14 03:34:41;;;;;;;46.27;27.50;;;7.60;99.90;;;;;;5055039;28;20845;-47
2022/01/14 03:37:07;;;;;;;48.00;26.50;;;7.60;99.90;;;;;;5037225;28;20449;-48
2022/01/14 03:39:35;;;;;;;55.07;32.10;;;7.50;99.90;;;;;;5056890;28;20437;-48
2022/01/14 03:42:02;;;;;;;54.80;29.90;;;7.50;99.90;;;;;;5057191;28;20452;-48
2022/01/14 03:44:29;;;;;;;41.00;25.50;;;7.50;99.90;;;;;;5056361;28;20487;-48
2022/01/14 03:46:56;;;;;;;52.00;29.87;;;7.50;99.90;;;;;;5055166;28;20808;-48
2022/01/14 03:49:22;;;;;;;42.17;26.30;;;7.50;99.90;;;;;;5054913;28;20449;-47
2022/01/14 03:51:49;;;;;;;43.90;26.40;;;7.50;99.90;;;;;;5054704;28;20465;-48
2022/01/14 03:54:15;;;;;;;49.13;26.23;;;7.50;99.90;;;;;;5054741;28;20419;-48
2022/01/14 03:56:43;;;;;;;50.93;26.97;;;7.50;99.90;;;;;;5054832;28;20429;-48
2022/01/14 03:59:10;;;;;;;44.53;27.70;;;7.50;99.90;;;;;;5054812;28;20489;-48
2022/01/14 04:01:36;;;;;;;44.23;26.37;;;7.50;99.90;;;;;;5054559;28;20433;-48
2022/01/14 04:04:03;;;;;;;50.03;27.07;;;7.50;99.90;;;;;;5054158;28;20452;-47
2022/01/14 04:06:30;;;;;;;43.13;26.37;;;7.50;99.90;;;;;;5054504;28;20416;-47
2022/01/14 04:08:57;;;;;;;42.73;24.73;;;7.50;99.90;;;;;;5054003;28;20808;-47
2022/01/14 04:11:24;;;;;;;42.00;24.43;;;7.50;99.90;;;;;;5054354;28;20436;-47
2022/01/14 04:13:54;;;;;;;41.93;24.63;;;7.50;99.90;;;;;;5054688;28;20452;-46
2022/01/14 04:16:23;;;;;;;50.97;25.60;;;7.50;99.90;;;;;;5054611;28;20794;-47
2022/01/14 04:18:51;;;;;;;47.53;26.30;;;7.30;99.90;;;;;;5054187;28;20541;-48
2022/01/14 04:21:19;;;;;;;37.70;23.70;;;7.50;99.90;;;;;;5054830;28;20448;-48
2022/01/14 04:23:46;;;;;;;45.23;24.37;;;7.50;99.90;;;;;;5054494;28;20429;-48
2022/01/14 04:26:13;;;;;;;40.73;25.27;;;7.50;99.90;;;;;;5054263;28;20492;-47
2022/01/14 04:28:40;;;;;;;38.20;21.90;;;7.40;99.90;;;;;;5054199;28;20470;-46
2022/01/14 04:31:09;;;;;;;35.27;21.67;;;7.40;99.90;;;;;;5054432;28;20441;-47
2022/01/14 04:33:36;;;;;;;37.73;23.17;;;7.40;99.90;;;;;;5054197;28;21020;-47
2022/01/14 04:36:04;;;;;;;41.07;23.77;;;7.40;99.90;;;;;;5054230;28;20448;-48
2022/01/14 04:38:31;;;;;;;39.63;25.13;;;7.40;99.90;;;;;;5053766;28;20437;-47
2022/01/14 04:40:58;;;;;;;44.13;23.50;;;7.40;99.90;;;;;;5054877;28;20420;-47
2022/01/14 04:43:25;;;;;;;36.80;23.37;;;7.40;99.90;;;;;;5054228;28;20436;-47
2022/01/14 04:46:13;;;;;;;40.33;23.13;;;7.40;99.90;;;;;;5053681;28;20474;-47
2022/01/14 04:48:41;;;;;;;36.97;22.40;;;7.30;99.90;;;;;;5054067;28;20438;-47
2022/01/14 04:51:10;;;;;;;36.73;21.60;;;7.40;99.90;;;;;;5056850;28;20438;-47
2022/01/14 04:53:38;;;;;;;42.73;23.13;;;7.40;99.90;;;;;;5057732;28;20473;-47
2022/01/14 04:56:05;;;;;;;36.43;21.40;;;7.40;99.90;;;;;;5057295;28;20442;-47
2022/01/14 04:58:32;;;;;;;39.03;23.87;;;7.40;99.90;;;;;;5057284;28;20444;-47
2022/01/14 05:00:59;;;;;;;31.20;21.80;;;7.40;99.90;;;;;;5057678;28;20420;-47
2022/01/14 05:03:26;;;;;;;35.63;23.77;;;7.50;99.90;;;;;;5057335;28;20794;-48
2022/01/14 05:05:57;;;;;;;37.00;23.20;;;7.40;99.90;;;;;;5057769;28;20575;-48
2022/01/14 05:08:26;;;;;;;32.00;22.13;;;7.50;99.90;;;;;;5057397;28;20430;-48
2022/01/14 05:11:04;;;;;;;40.73;23.03;;;7.50;99.90;;;;;;5057762;28;20813;-48
2022/01/14 05:13:31;;;;;;;39.13;22.90;;;7.50;99.90;;;;;;5057601;28;20457;-48
2022/01/14 05:15:58;;;;;;;36.90;22.17;;;7.50;99.90;;;;;;5057402;28;20784;-48
2022/01/14 05:18:25;;;;;;;33.23;22.40;;;7.50;99.90;;;;;;5057595;28;20504;-48
2022/01/14 05:20:54;;;;;;;32.30;22.73;;;7.40;99.90;;;;;;5057770;28;20494;-48
2022/01/14 05:23:21;;;;;;;37.03;24.03;;;7.40;99.90;;;;;;5057561;28;20459;-47
2022/01/14 05:25:47;;;;;;;30.10;21.80;;;7.40;99.90;;;;;;5057293;28;20493;-48
2022/01/14 05:28:14;;;;;;;36.00;23.00;;;7.30;99.90;;;;;;5056713;28;20791;-48
2022/01/14 05:30:41;;;;;;;38.37;23.90;;;7.40;99.90;;;;;;5057248;28;20931;-47
2022/01/14 05:33:07;;;;;;;37.90;23.00;;;7.50;99.90;;;;;;5057098;28;20433;-48
2022/01/14 05:35:34;;;;;;;33.30;21.20;;;7.50;99.90;;;;;;5057479;28;20413;-48
2022/01/14 05:38:02;;;;;;;50.60;24.43;;;7.50;99.90;;;;;;5056651;28;20787;-48
2022/01/14 05:40:29;;;;;;;35.30;23.83;;;7.50;99.90;;;;;;5056455;28;20424;-48
2022/01/14 05:42:56;;;;;;;36.93;23.50;;;7.50;99.90;;;;;;5057524;28;20484;-48
2022/01/14 05:45:23;;;;;;;40.93;25.47;;;7.50;99.90;;;;;;5056877;28;20452;-48
2022/01/14 05:47:49;;;;;;;34.70;25.40;;;7.50;99.90;;;;;;5056455;28;20902;-48
2022/01/14 05:50:18;;;;;;;40.23;25.57;;;7.40;99.90;;;;;;5056580;28;20442;-48
2022/01/14 05:52:45;;;;;;;36.97;25.20;;;7.40;99.90;;;;;;5056644;28;20469;-48
2022/01/14 05:55:15;;;;;;;36.37;24.37;;;7.50;99.90;;;;;;5038493;28;20453;-48
2022/01/14 05:57:41;;;;;;;36.40;25.53;;;7.50;99.90;;;;;;5055945;28;20860;-48
2022/01/14 06:00:11;;;;;;;36.40;24.23;;;7.50;99.90;;;;;;5056871;28;20412;-48
2022/01/14 06:02:45;;;;;;;43.03;25.77;;;7.50;99.90;;;;;;5056808;28;20454;-48
2022/01/14 06:05:12;;;;;;;41.60;25.00;;;7.50;99.90;;;;;;5055992;28;20468;-48
2022/01/14 06:07:39;;;;;;;38.60;25.07;;;7.50;99.90;;;;;;5056254;28;20442;-48
2022/01/14 06:10:06;;;;;;;41.83;27.93;;;7.40;99.90;;;;;;5057087;28;20467;-48
2022/01/14 06:12:34;;;;;;;38.20;24.97;;;7.40;99.90;;;;;;5056005;28;20429;-48
2022/01/14 06:15:01;;;;;;;45.80;26.53;;;7.40;99.90;;;;;;5056895;28;20814;-48
2022/01/14 06:17:28;;;;;;;39.27;24.60;;;7.40;99.90;;;;;;5055809;28;20446;-49
2022/01/14 06:19:54;;;;;;;40.53;25.73;;;7.40;99.90;;;;;;5055761;28;20442;-48
2022/01/14 06:22:21;;;;;;;41.43;26.20;;;7.40;99.90;;;;;;5055886;28;20945;-48
2022/01/14 06:24:49;;;;;;;45.90;26.43;;;7.40;99.90;;;;;;5055512;28;20445;-49
2022/01/14 06:27:15;;;;;;;44.93;26.50;;;7.50;99.90;;;;;;5056055;28;20416;-49
2022/01/14 06:29:43;;;;;;;47.07;28.80;;;7.50;99.90;;;;;;5054747;28;20421;-48
2022/01/14 06:32:10;;;;;;;59.90;31.77;;;7.40;99.90;;;;;;5055145;28;20460;-48
2022/01/14 06:34:37;;;;;;;47.00;30.47;;;7.40;99.90;;;;;;5055613;28;20909;-48
2022/01/14 06:37:04;;;;;;;56.27;29.60;;;7.50;99.90;;;;;;5054817;28;20434;-47
2022/01/14 06:39:31;;;;;;;52.10;31.33;;;7.50;99.90;;;;;;5037194;28;20421;-48
2022/01/14 06:41:57;;;;;;;61.27;34.70;;;7.40;99.90;;;;;;5054671;28;20576;-50
2022/01/14 06:44:24;;;;;;;62.83;33.00;;;7.40;99.90;;;;;;5055596;28;20507;-47
2022/01/14 06:46:52;;;;;;;59.90;33.27;;;7.40;99.90;;;;;;5054790;28;20482;-47
2022/01/14 06:49:19;;;;;;;56.60;31.73;;;7.40;99.90;;;;;;5054817;28;20529;-48
2022/01/14 06:51:45;;;;;;;61.73;32.00;;;7.40;99.90;;;;;;5054506;28;20428;-50
2022/01/14 06:54:12;;;;;;;57.50;32.20;;;7.40;99.90;;;;;;5054821;28;20692;-49
2022/01/14 06:56:39;;;;;;;54.20;30.60;;;7.30;99.90;;;;;;5054859;28;20476;-48
2022/01/14 06:59:06;;;;;;;57.03;29.30;;;7.30;99.90;;;;;;5054031;28;20416;-49
2022/01/14 07:01:32;;;;;;;53.67;26.83;;;7.30;99.90;;;;;;5036356;28;20438;-49
2022/01/14 07:04:00;;;;;;;50.43;29.90;;;7.30;99.90;;;;;;5054987;28;20435;-49
2022/01/14 07:06:27;;;;;;;48.50;28.33;;;7.20;99.90;;;;;;5054337;28;20485;-47
2022/01/14 07:08:54;;;;;;;48.67;28.07;;;7.20;99.90;;;;;;5054205;28;20455;-49
2022/01/14 07:11:25;;;;;;;47.20;27.93;;;7.20;99.90;;;;;;5054694;28;20771;-50
2022/01/14 07:13:52;;;;;;;49.93;27.80;;;7.20;99.90;;;;;;5054850;28;20958;-48
2022/01/14 07:16:19;;;;;;;56.03;29.33;;;7.20;99.90;;;;;;5055018;28;20441;-48
2022/01/14 07:18:48;;;;;;;91.60;39.00;;;7.30;99.90;;;;;;5054819;28;20414;-48
2022/01/14 07:21:16;;;;;;;54.80;32.67;;;7.30;99.90;;;;;;5054742;28;20426;-49
2022/01/14 07:23:43;;;;;;;59.17;31.57;;;7.30;99.90;;;;;;5054371;28;21075;-49
2022/01/14 07:26:10;;;;;;;65.00;34.03;;;7.30;99.90;;;;;;5054125;28;20944;-49
2022/01/14 07:28:36;;;;;;;50.43;32.10;;;7.30;99.90;;;;;;5053946;28;20441;-49
2022/01/14 07:31:03;;;;;;;57.23;32.53;;;7.40;99.90;;;;;;5054574;28;20442;-48
2022/01/14 07:33:30;;;;;;;50.30;29.90;;;7.40;99.90;;;;;;5053927;28;20548;-48
2022/01/14 07:35:56;;;;;;;54.10;31.30;;;7.40;99.90;;;;;;5054194;28;20418;-48
2022/01/14 07:38:24;;;;;;;44.87;27.07;;;7.40;99.90;;;;;;5054014;28;20772;-48
2022/01/14 07:40:51;;;;;;;52.67;28.80;;;7.40;99.90;;;;;;5054686;28;20445;-48
2022/01/14 07:43:19;;;;;;;51.00;26.63;;;7.40;99.90;;;;;;5054125;28;20465;-49
2022/01/14 07:45:47;;;;;;;39.80;25.87;;;7.40;99.90;;;;;;5054184;28;20477;-48
2022/01/14 07:48:13;;;;;;;43.17;25.80;;;7.40;99.90;;;;;;5053803;28;20472;-48
2022/01/14 07:50:40;;;;;;;46.93;27.97;;;7.40;99.90;;;;;;5055071;28;20441;-48
2022/01/14 07:53:07;;;;;;;42.03;25.63;;;7.40;99.90;;;;;;5054022;28;20465;-48
2022/01/14 07:55:35;;;;;;;42.47;24.77;;;7.40;99.90;;;;;;5054902;28;20438;-49
2022/01/14 07:58:01;;;;;;;44.13;24.90;;;7.40;99.90;;;;;;5053629;28;20961;-48
2022/01/14 08:00:28;;;;;;;47.40;26.90;;;7.30;99.90;;;;;;5054126;28;20938;-49
2022/01/14 08:02:56;;;;;;;46.13;27.87;;;7.30;99.90;;;;;;5054906;28;20437;-48
2022/01/14 08:05:23;;;;;;;41.70;24.40;;;7.40;99.90;;;;;;5054343;28;20492;-49
2022/01/14 08:07:52;;;;;;;39.53;25.43;;;7.40;99.90;;;;;;5053752;28;20441;-49
2022/01/14 08:10:19;;;;;;;41.97;23.97;;;7.40;99.90;;;;;;5055003;28;20787;-48
2022/01/14 08:12:47;;;;;;;36.80;25.17;;;7.40;99.90;;;;;;5054154;28;20462;-49
2022/01/14 08:15:14;;;;;;;36.23;22.77;;;7.50;99.90;;;;;;5054636;28;20996;-49
2022/01/14 08:17:41;;;;;;;44.17;25.30;;;7.40;99.90;;;;;;5053856;28;20414;-48
2022/01/14 08:20:09;;;;;;;37.47;22.97;;;7.40;99.90;;;;;;5053832;28;20499;-49
2022/01/14 08:22:36;;;;;;;37.37;24.30;;;7.40;99.90;;;;;;5054860;28;20540;-48
2022/01/14 08:25:04;;;;;;;46.57;25.37;;;7.40;99.90;;;;;;5057548;28;20419;-48
2022/01/14 08:27:31;;;;;;;45.23;25.87;;;7.40;99.90;;;;;;5059040;28;20455;-49
2022/01/14 08:29:59;;;;;;;36.60;22.70;;;7.40;99.90;;;;;;5058206;28;20775;-49
2022/01/14 08:32:25;;;;;;;38.70;26.60;;;7.40;99.90;;;;;;5039314;28;20451;-48
2022/01/14 08:34:52;;;;;;;40.43;24.70;;;7.40;99.90;;;;;;5058072;28;20949;-49
2022/01/14 08:37:19;;;;;;;39.00;23.00;;;7.40;99.90;;;;;;5058111;28;20609;-48
2022/01/14 08:39:45;;;;;;;45.97;25.03;;;7.40;99.90;;;;;;5058229;28;20806;-48
2022/01/14 08:42:13;;;;;;;39.73;23.93;;;7.40;99.90;;;;;;5058186;28;20467;-48
2022/01/14 08:44:41;;;;;;;40.07;23.83;;;7.40;99.90;;;;;;5057740;28;20910;-48
2022/01/14 08:47:10;;;;;;;46.10;24.20;;;7.40;99.90;;;;;;5057950;28;20479;-49
2022/01/14 08:49:37;;;;;;;46.10;24.93;;;7.40;99.90;;;;;;5039442;28;20447;-48
2022/01/14 08:52:04;;;;;;;42.00;24.80;;;7.40;99.90;;;;;;5057846;28;20473;-48
2022/01/14 08:54:31;;;;;;;48.40;23.40;;;7.40;99.90;;;;;;5057363;28;20434;-48
2022/01/14 08:56:57;;;;;;;43.17;24.70;;;7.40;99.90;;;;;;5055344;28;20851;-49
2022/01/14 08:59:24;;;;;;;43.47;24.90;;;7.40;99.90;;;;;;5055907;28;20423;-48
2022/01/14 09:01:51;;;;;;;48.00;25.40;;;7.40;99.90;;;;;;5055449;28;20470;-48
2022/01/14 09:04:19;;;;;;;40.30;26.40;;;7.50;99.90;;;;;;5057452;28;20437;-48
2022/01/14 09:06:46;;;;;;;40.43;24.47;;;7.60;99.90;;;;;;5056641;28;20480;-48
2022/01/14 09:09:13;;;;;;;46.57;25.93;;;7.50;99.90;;;;;;5056587;28;20449;-48
2022/01/14 09:11:39;;;;;;;48.70;26.07;;;7.50;99.90;;;;;;5056684;28;20443;-49
2022/01/14 09:14:06;;;;;;;39.27;24.67;;;7.50;99.90;;;;;;5057051;28;20439;-48
2022/01/14 09:16:33;;;;;;;40.27;25.30;;;7.50;99.90;;;;;;5057036;28;20513;-48
2022/01/14 09:19:00;;;;;;;47.40;27.07;;;7.50;99.90;;;;;;5054939;28;20934;-48
2022/01/14 09:21:28;;;;;;;36.10;24.07;;;7.50;99.90;;;;;;5054448;28;20962;-48
2022/01/14 09:24:03;;;;;;;35.73;23.60;;;7.50;99.90;;;;;;5054794;28;20870;-48
2022/01/14 09:26:30;;;;;;;43.07;25.13;;;7.50;99.90;;;;;;5036450;28;20452;-48
2022/01/14 09:28:57;;;;;;;41.10;24.43;;;7.60;99.90;;;;;;5055079;28;20743;-49
2022/01/14 09:31:24;;;;;;;33.97;23.50;;;7.50;99.90;;;;;;5054607;28;20457;-47
2022/01/14 09:33:50;;;;;;;41.03;23.97;;;7.60;99.90;;;;;;5054769;28;20488;-48
2022/01/14 09:36:17;;;;;;;40.10;22.47;;;7.40;99.90;;;;;;5054392;28;20426;-47
2022/01/14 09:38:45;;;;;;;35.73;22.50;;;7.60;99.90;;;;;;5037251;28;20984;-48
2022/01/14 09:41:14;;;;;;;37.13;21.30;;;7.60;99.90;;;;;;5055029;28;20441;-48
2022/01/14 09:43:41;;;;;;;38.30;21.30;;;7.50;99.90;;;;;;5055733;28;20457;-48
2022/01/14 09:46:10;;;;;;;36.63;22.40;;;7.50;99.90;;;;;;5055758;28;20477;-48
2022/01/14 09:48:38;;;;;;;34.63;21.30;;;7.50;99.90;;;;;;5055421;28;20846;-48
2022/01/14 09:51:06;;;;;;;37.33;23.60;;;7.50;99.90;;;;;;5055496;28;20448;-49
2022/01/14 09:53:33;;;;;;;38.10;20.73;;;7.60;99.90;;;;;;5055185;28;20465;-49
2022/01/14 09:56:02;;;;;;;33.37;19.30;;;7.60;99.90;;;;;;5055186;28;20447;-49
2022/01/14 09:58:35;;;;;;;31.77;20.63;;;7.60;99.90;;;;;;5054975;28;20441;-49
2022/01/14 10:01:10;;;;;;;38.13;21.03;;;7.60;99.90;;;;;;5055331;28;20469;-47
2022/01/14 10:03:52;;;;;;;39.50;22.80;;;7.70;99.90;;;;;;5037726;28;20465;-47
2022/01/14 10:06:37;;;;;;;34.67;23.70;;;7.70;99.90;;;;;;5055035;28;20474;-46
2022/01/14 10:09:08;;;;;;;28.23;20.27;;;7.70;99.90;;;;;;5054748;28;20501;-49
2022/01/14 10:11:37;;;;;;;45.93;21.07;;;7.70;99.90;;;;;;5055090;28;20433;-47
2022/01/14 10:14:06;;;;;;;34.07;20.30;;;7.70;99.90;;;;;;5055165;28;20473;-49
2022/01/14 10:16:33;;;;;;;42.77;20.93;;;7.70;99.90;;;;;;5054387;28;20432;-48
2022/01/14 10:18:59;;;;;;;35.73;18.90;;;7.70;99.90;;;;;;5054699;28;20415;-48
2022/01/14 10:21:32;;;;;;;32.13;20.23;;;7.80;99.90;;;;;;5054672;28;20446;-48
2022/01/14 10:23:59;;;;;;;34.13;19.17;;;7.90;99.90;;;;;;5055121;28;20484;-48
2022/01/14 10:26:27;;;;;;;27.90;18.30;;;7.90;99.90;;;;;;5054783;28;20485;-47
2022/01/14 10:29:05;;;;;;;34.60;21.33;;;7.90;99.90;;;;;;5054229;28;20483;-47
2022/01/14 10:31:33;;;;;;;27.17;18.80;;;7.90;99.90;;;;;;5054934;28;20446;-48
2022/01/14 10:34:13;;;;;;;30.73;17.10;;;7.90;99.90;;;;;;5054819;28;20439;-48
2022/01/14 10:36:43;;;;;;;30.50;18.60;;;8.00;99.90;;;;;;5054263;28;20430;-48
2022/01/14 10:39:21;;;;;;;28.40;16.40;;;7.90;99.90;;;;;;5054420;28;20422;-49
2022/01/14 10:41:47;;;;;;;23.83;15.20;;;7.90;99.90;;;;;;5036293;28;20447;-47
2022/01/14 10:44:28;;;;;;;24.90;14.23;;;7.90;99.90;;;;;;5054413;28;20445;-47
2022/01/14 10:47:13;;;;;;;20.37;13.30;;;8.00;99.90;;;;;;5054159;28;20460;-48
2022/01/14 10:49:40;;;;;;;22.70;14.70;;;8.00;99.90;;;;;;5053751;28;20899;-48
2022/01/14 10:52:11;;;;;;;22.40;15.73;;;7.90;99.90;;;;;;5076575;22;20960;-49
2022/01/14 10:54:40;;;;;;;24.80;16.20;;;8.00;99.90;;;;;;5051725;28;20435;-50
2022/01/14 10:57:18;;;;;;;23.77;15.33;;;8.00;99.90;;;;;;5051742;28;20445;-48
2022/01/14 10:59:48;;;;;;;22.00;13.27;;;8.10;99.90;;;;;;5051512;28;20762;-49
2022/01/14 11:02:34;;;;;;;29.03;14.40;;;8.10;99.90;;;;;;5051259;28;20458;-49
2022/01/14 11:05:10;;;;;;;22.80;13.03;;;8.20;99.90;;;;;;5051668;28;20445;-48
2022/01/14 11:07:38;;;;;;;23.57;12.17;;;8.20;99.90;;;;;;5051300;28;20484;-48
2022/01/14 11:10:18;;;;;;;22.37;12.37;;;8.20;99.90;;;;;;5051894;28;20436;-49
2022/01/14 11:12:46;;;;;;;20.53;13.50;;;8.30;99.90;;;;;;5051579;28;20855;-50
2022/01/14 11:15:15;;;;;;;23.53;11.93;;;8.20;99.90;;;;;;5033303;28;20449;-49
2022/01/14 11:17:45;;;;;;;16.10;10.90;;;8.20;99.90;;;;;;5050511;28;20442;-49
2022/01/14 11:20:12;;;;;;;19.13;10.73;;;8.20;99.90;;;;;;5051612;28;20439;-48
2022/01/14 11:25:23;;;;;;;14.83;10.63;;;8.20;99.90;;;;;;5051376;28;20416;-49
2022/01/14 11:27:54;;;;;;;28.13;12.40;;;8.20;99.90;;;;;;5050397;28;20476;-49
2022/01/14 11:30:33;;;;;;;21.73;10.93;;;8.20;99.90;;;;;;5051171;28;20429;-49
2022/01/14 11:33:03;;;;;;;26.03;10.97;;;8.20;99.90;;;;;;5051209;28;20599;-49
2022/01/14 11:35:30;;;;;;;20.93;11.27;;;8.20;99.90;;;;;;5050832;28;20473;-49
2022/01/14 11:37:59;;;;;;;18.73;10.37;;;8.20;99.90;;;;;;5050469;28;20528;-49
2022/01/14 11:40:26;;;;;;;17.80;10.57;;;8.20;99.90;;;;;;5032896;28;20478;-49
2022/01/14 11:42:58;;;;;;;17.53;11.23;;;8.30;99.90;;;;;;5050802;28;20455;-49
2022/01/14 11:45:54;;;;;;;15.47;9.17;;;8.30;99.90;;;;;;5051361;28;20769;-48
2022/01/14 11:48:32;;;;;;;19.13;11.30;;;8.30;99.90;;;;;;5048583;28;20973;-48
2022/01/14 11:51:04;;;;;;;20.00;9.50;;;8.30;99.90;;;;;;5047052;28;20774;-49
2022/01/14 11:53:43;;;;;;;25.40;11.40;;;8.30;99.90;;;;;;5049928;28;20878;-49
2022/01/14 11:56:43;;;;;;;17.73;10.07;;;8.30;99.90;;;;;;5050823;28;20401;-51
2022/01/14 11:59:39;;;;;;;16.13;9.70;;;8.30;99.90;;;;;;5031842;28;20410;-49
2022/01/14 12:02:28;;;;;;;17.17;8.80;;;8.30;99.90;;;;;;5034692;28;20453;-49
2022/01/14 12:05:04;;;;;;;20.93;10.10;;;8.30;99.90;;;;;;5035339;28;20796;-48
2022/01/14 12:07:31;;;;;;;18.90;10.73;;;8.30;99.90;;;;;;5034808;28;20501;-49
2022/01/14 12:10:07;;;;;;;18.93;10.67;;;8.40;99.90;;;;;;5034841;28;20933;-49
2022/01/14 12:12:34;;;;;;;18.80;10.37;;;8.40;99.90;;;;;;5017286;28;20531;-50
2022/01/14 12:15:03;;;;;;;17.13;10.10;;;8.40;99.90;;;;;;5034880;28;20447;-49
2022/01/14 12:17:35;;;;;;;17.03;9.10;;;8.40;99.90;;;;;;5034729;28;20446;-48
2022/01/14 12:20:12;;;;;;;21.93;9.73;;;8.40;99.90;;;;;;5034393;28;20431;-50
2022/01/14 12:22:40;;;;;;;21.20;9.33;;;8.40;99.90;;;;;;5038676;28;20515;-50
2022/01/14 12:25:07;;;;;;;14.57;9.37;;;8.40;99.90;;;;;;5054162;28;20423;-50
2022/01/14 12:27:44;;;;;;;23.33;9.53;;;8.40;99.90;;;;;;5053787;28;20479;-49
2022/01/14 12:30:14;;;;;;;15.10;8.40;;;8.40;99.90;;;;;;5054317;28;20418;-49
2022/01/14 12:32:44;;;;;;;12.90;9.13;;;8.40;99.90;;;;;;5054358;28;20477;-49
2022/01/14 12:35:16;;;;;;;17.37;9.27;;;8.40;99.90;;;;;;5054190;28;20975;-50
2022/01/14 12:37:46;;;;;;;11.33;8.00;;;8.40;99.90;;;;;;5053850;28;20438;-50
2022/01/14 12:40:15;;;;;;;16.03;9.03;;;8.40;99.90;;;;;;5054233;28;20462;-50
2022/01/14 12:42:47;;;;;;;12.63;8.37;;;8.40;99.90;;;;;;5053130;28;20774;-49
2022/01/14 12:45:28;;;;;;;15.47;9.10;;;8.40;99.90;;;;;;5051848;28;20537;-48
2022/01/14 12:48:29;;;;;;;14.10;8.90;;;8.40;99.90;;;;;;5053551;28;20482;-50
2022/01/14 12:51:08;;;;;;;16.30;9.23;;;8.40;99.90;;;;;;5053655;28;20528;-49
2022/01/14 12:53:35;;;;;;;14.90;8.43;;;8.40;99.90;;;;;;5053542;28;20473;-49
2022/01/14 12:56:03;;;;;;;16.37;9.30;;;8.40;99.90;;;;;;5053670;28;20449;-49
2022/01/14 12:58:30;;;;;;;15.87;9.20;;;8.30;99.90;;;;;;5053626;28;20526;-49
2022/01/14 13:01:09;;;;;;;18.27;13.20;;;8.40;99.90;;;;;;5053383;28;20442;-50
2022/01/14 13:03:38;;;;;;;14.43;9.87;;;8.40;99.90;;;;;;5053874;28;20481;-50